createdAt,value
2022-08-10T00:00:10.273Z,17.69
2022-08-10T00:02:39.075Z,17.61
2022-08-10T00:05:09.106Z,17.53
2022-08-10T00:07:46.617Z,17.64
2022-08-10T00:10:18.968Z,17.59
2022-08-10T00:12:54.567Z,17.61
2022-08-10T00:15:51.828Z,17.73
2022-08-10T00:18:28.913Z,17.59
2022-08-10T00:21:03.348Z,17.43
2022-08-10T00:23:32.271Z,17.35
2022-08-10T00:26:01.648Z,17.42
2022-08-10T00:28:32.302Z,17.35
2022-08-10T00:31:01.142Z,17.25
2022-08-10T00:33:30.098Z,17.18
2022-08-10T00:35:59.288Z,17.26
2022-08-10T00:38:28.025Z,17.18
2022-08-10T00:40:56.844Z,17.13
2022-08-10T00:43:25.819Z,17.13
2022-08-10T00:46:01.594Z,17.19
2022-08-10T00:48:32.288Z,17.19
2022-08-10T00:51:02.290Z,17.03
2022-08-10T00:53:31.783Z,16.91
2022-08-10T00:57:02.041Z,16.85
2022-08-10T00:58:50.308Z,16.92
2022-08-10T01:02:07.475Z,16.88
2022-08-10T01:04:39.692Z,16.92
2022-08-10T01:07:29.943Z,16.81
2022-08-10T01:10:16.947Z,16.75
2022-08-10T01:12:57.984Z,16.63
2022-08-10T01:15:32.207Z,16.57
2022-08-10T01:18:07.694Z,16.61
2022-08-10T01:20:48.929Z,16.58
2022-08-10T01:24:01.865Z,16.53
2022-08-10T01:26:50.981Z,16.39
2022-08-10T01:29:56.390Z,16.45
2022-08-10T01:32:49.293Z,16.62
2022-08-10T01:35:30.458Z,16.54
2022-08-10T01:38:07.923Z,16.40
2022-08-10T01:40:45.827Z,16.43
2022-08-10T01:43:18.710Z,16.52
2022-08-10T01:45:57.014Z,16.33
2022-08-10T01:48:32.281Z,16.20
2022-08-10T01:51:17.348Z,16.43
2022-08-10T01:53:53.190Z,16.48
2022-08-10T01:56:25.981Z,16.38
2022-08-10T01:59:01.613Z,16.24
2022-08-10T02:01:39.375Z,16.19
2022-08-10T02:04:13.582Z,16.22
2022-08-10T02:06:47.216Z,16.22
2022-08-10T02:09:22.404Z,16.16
2022-08-10T02:12:06.070Z,16.04
2022-08-10T02:14:41.903Z,16.03
2022-08-10T02:17:58.183Z,16.08
2022-08-10T02:20:16.548Z,15.99
2022-08-10T02:22:49.809Z,15.87
2022-08-10T02:25:41.294Z,15.92
2022-08-10T02:28:29.488Z,15.84
2022-08-10T02:31:06.628Z,15.77
2022-08-10T02:33:45.594Z,15.69
2022-08-10T02:36:32.894Z,15.68
2022-08-10T02:39:07.876Z,15.84
2022-08-10T02:45:01.928Z,15.64
2022-08-10T02:45:26.411Z,15.67
2022-08-10T02:47:51.041Z,15.65
2022-08-10T02:50:30.679Z,15.56
2022-08-10T02:53:07.934Z,15.59
2022-08-10T02:56:29.912Z,15.50
2022-08-10T02:59:17.472Z,15.43
2022-08-10T03:01:50.553Z,15.46
2022-08-10T03:04:57.399Z,15.48
2022-08-10T03:07:44.616Z,15.53
2022-08-10T03:10:19.873Z,15.51
2022-08-10T03:12:54.767Z,15.42
2022-08-10T03:15:34.410Z,15.44
2022-08-10T03:18:05.647Z,15.48
2022-08-10T03:20:40.916Z,15.39
2022-08-10T03:23:16.481Z,15.35
2022-08-10T03:25:53.053Z,15.28
2022-08-10T03:28:25.400Z,15.30
2022-08-10T03:30:57.450Z,15.28
2022-08-10T03:33:31.149Z,15.30
2022-08-10T03:36:43.365Z,15.27
2022-08-10T03:38:52.761Z,15.23
2022-08-10T03:42:01.316Z,15.25
2022-08-10T03:44:34.789Z,15.28
2022-08-10T03:47:16.131Z,15.40
2022-08-10T03:49:48.999Z,15.50
2022-08-10T03:52:26.146Z,15.56
2022-08-10T03:54:56.986Z,15.53
2022-08-10T03:57:30.004Z,15.51
2022-08-10T03:59:59.404Z,15.50
2022-08-10T04:02:45.314Z,15.48
2022-08-10T04:05:17.706Z,15.48
2022-08-10T04:07:48.009Z,15.48
2022-08-10T04:10:19.183Z,15.51
2022-08-10T04:12:48.092Z,15.56
2022-08-10T04:15:19.850Z,15.55
2022-08-10T04:18:03.657Z,15.56
2022-08-10T04:20:39.850Z,15.56
2022-08-10T04:23:16.297Z,15.53
2022-08-10T04:26:20.308Z,15.57
2022-08-10T04:28:50.312Z,15.61
2022-08-10T04:31:20.876Z,15.57
2022-08-10T04:33:53.726Z,15.55
2022-08-10T04:36:24.537Z,15.48
2022-08-10T04:38:54.870Z,15.48
2022-08-10T04:41:25.802Z,15.52
2022-08-10T04:43:54.843Z,15.58
2022-08-10T04:46:55.403Z,15.56
2022-08-10T04:49:55.918Z,15.61
2022-08-10T04:52:53.145Z,15.65
2022-08-10T04:55:22.393Z,15.55
2022-08-10T04:57:52.620Z,15.51
2022-08-10T05:00:21.536Z,15.55
2022-08-10T05:02:50.911Z,15.64
2022-08-10T05:05:20.262Z,15.69
2022-08-10T05:07:54.309Z,15.76
2022-08-10T05:10:26.085Z,15.79
2022-08-10T05:12:56.348Z,15.75
2022-08-10T05:15:25.407Z,15.73
2022-08-10T05:18:08.215Z,15.75
2022-08-10T05:20:42.265Z,15.75
2022-08-10T05:23:18.184Z,15.75
2022-08-10T05:25:46.959Z,15.78
2022-08-10T05:28:17.281Z,15.87
2022-08-10T05:30:46.158Z,15.93
2022-08-10T05:33:14.939Z,16.01
2022-08-10T05:35:55.488Z,16.00
2022-08-10T05:38:30.309Z,16.01
2022-08-10T05:40:59.856Z,16.05
2022-08-10T05:43:30.327Z,16.07
2022-08-10T05:46:16.855Z,16.12
2022-08-10T05:48:59.034Z,16.22
2022-08-10T05:51:44.243Z,16.33
2022-08-10T05:54:16.310Z,16.46
2022-08-10T05:56:53.329Z,16.57
2022-08-10T06:00:35.890Z,16.67
2022-08-10T06:02:59.057Z,16.80
2022-08-10T06:05:33.507Z,16.88
2022-08-10T06:08:09.956Z,16.97
2022-08-10T06:12:23.787Z,17.05
2022-08-10T06:14:16.063Z,17.18
2022-08-10T06:16:47.318Z,17.26
2022-08-10T06:19:16.905Z,17.32
2022-08-10T06:22:00.965Z,17.42
2022-08-10T06:24:36.431Z,17.53
2022-08-10T06:27:17.521Z,17.61
2022-08-10T06:29:51.390Z,17.70
2022-08-10T06:32:28.650Z,17.81
2022-08-10T06:35:01.162Z,17.90
2022-08-10T06:37:34.531Z,17.99
2022-08-10T06:40:35.153Z,18.12
2022-08-10T06:43:10.911Z,18.22
2022-08-10T06:45:47.277Z,18.36
2022-08-10T06:48:46.703Z,18.48
2022-08-10T06:51:24.063Z,18.62
2022-08-10T06:53:57.771Z,18.76
2022-08-10T06:56:37.564Z,18.88
2022-08-10T06:59:22.551Z,19.01
2022-08-10T07:01:59.030Z,19.14
2022-08-10T07:04:36.269Z,19.25
2022-08-10T07:07:09.342Z,19.36
2022-08-10T07:09:42.934Z,19.46
2022-08-10T07:12:15.565Z,19.56
2022-08-10T07:14:47.341Z,19.69
2022-08-10T07:17:22.009Z,19.80
2022-08-10T07:19:57.298Z,19.90
2022-08-10T07:23:01.785Z,20.01
2022-08-10T07:25:26.482Z,20.15
2022-08-10T07:28:01.774Z,20.26
2022-08-10T07:30:37.213Z,20.34
2022-08-10T07:33:10.071Z,20.50
2022-08-10T07:35:45.503Z,20.62
2022-08-10T07:38:23.042Z,20.73
2022-08-10T07:40:55.557Z,20.84
2022-08-10T07:43:28.586Z,20.97
2022-08-10T07:46:00.504Z,21.05
2022-08-10T07:48:55.875Z,21.19
2022-08-10T07:51:29.852Z,21.32
2022-08-10T07:54:06.168Z,21.44
2022-08-10T07:56:48.789Z,21.54
2022-08-10T07:59:31.282Z,21.72
2022-08-10T08:02:03.741Z,21.83
2022-08-10T08:04:34.438Z,21.94
2022-08-10T08:07:08.648Z,22.03
2022-08-10T08:09:39.490Z,22.16
2022-08-10T08:12:31.441Z,22.26
2022-08-10T08:16:14.484Z,22.37
2022-08-10T08:17:59.723Z,22.49
2022-08-10T08:20:31.616Z,22.57
2022-08-10T08:24:09.034Z,22.67
2022-08-10T08:25:58.113Z,22.80
2022-08-10T08:28:29.996Z,22.95
2022-08-10T08:31:00.633Z,23.06
2022-08-10T08:33:41.938Z,23.17
2022-08-10T08:36:12.936Z,23.28
2022-08-10T08:38:45.780Z,23.29
2022-08-10T08:41:55.007Z,23.41
2022-08-10T08:44:51.110Z,23.62
2022-08-10T08:48:02.126Z,23.73
2022-08-10T08:50:46.680Z,23.89
2022-08-10T08:54:02.636Z,24.04
2022-08-10T08:56:32.462Z,24.10
2022-08-10T08:59:32.428Z,24.11
2022-08-10T09:02:30.546Z,24.19
2022-08-10T09:05:21.891Z,24.20
2022-08-10T09:08:18.430Z,24.31
2022-08-10T09:10:59.383Z,24.34
2022-08-10T09:13:43.550Z,24.39
2022-08-10T09:16:31.644Z,24.60
2022-08-10T09:19:11.670Z,24.66
2022-08-10T09:22:18.369Z,25.01
2022-08-10T09:24:59.064Z,25.29
2022-08-10T09:27:37.592Z,25.41
2022-08-10T09:30:11.121Z,25.63
2022-08-10T09:36:19.686Z,25.90
2022-08-10T09:36:25.760Z,26.02
2022-08-10T09:38:56.018Z,26.38
2022-08-10T09:41:42.696Z,26.70
2022-08-10T09:44:28.340Z,26.84
2022-08-10T09:47:59.983Z,27.07
2022-08-10T09:50:50.052Z,27.27
2022-08-10T09:53:36.438Z,27.55
2022-08-10T09:56:26.754Z,27.68
2022-08-10T09:59:27.070Z,27.82
2022-08-10T10:02:27.656Z,28.17
2022-08-10T10:05:15.143Z,28.03
2022-08-10T10:07:55.155Z,28.08
2022-08-10T10:10:34.265Z,28.13
2022-08-10T10:13:10.580Z,28.40
2022-08-10T10:15:54.365Z,28.54
2022-08-10T10:18:44.531Z,28.51
2022-08-10T10:21:54.193Z,28.65
2022-08-10T10:24:39.523Z,28.89
2022-08-10T10:27:25.864Z,29.14
2022-08-10T10:30:06.269Z,29.39
2022-08-10T10:32:57.947Z,29.57
2022-08-10T10:35:37.814Z,29.53
2022-08-10T10:38:11.556Z,29.68
2022-08-10T10:40:49.351Z,29.82
2022-08-10T10:43:44.321Z,29.95
2022-08-10T10:46:34.465Z,29.94
2022-08-10T10:49:24.171Z,29.86
2022-08-10T10:52:06.145Z,29.95
2022-08-10T10:54:48.073Z,29.98
2022-08-10T10:57:58.535Z,30.21
2022-08-10T11:00:26.246Z,30.30
2022-08-10T11:03:21.138Z,30.29
2022-08-10T11:06:09.730Z,29.65
2022-08-10T11:08:52.171Z,29.18
2022-08-10T11:12:01.814Z,28.89
2022-08-10T11:14:31.885Z,28.55
2022-08-10T11:17:12.545Z,28.17
2022-08-10T11:20:01.326Z,28.12
2022-08-10T11:22:40.421Z,28.51
2022-08-10T11:25:21.428Z,28.69
2022-08-10T11:28:00.893Z,28.94
2022-08-10T11:30:42.883Z,29.38
2022-08-10T11:33:30.830Z,30.01
2022-08-10T11:36:10.839Z,30.44
2022-08-10T11:39:12.907Z,30.52
2022-08-10T11:42:10.367Z,30.58
2022-08-10T11:44:50.685Z,30.90
2022-08-10T11:47:24.930Z,31.17
2022-08-10T11:50:03.217Z,31.16
2022-08-10T11:52:42.619Z,31.12
2022-08-10T11:55:20.644Z,31.14
2022-08-10T11:57:56.683Z,30.74
2022-08-10T12:00:29.567Z,30.38
2022-08-10T12:03:08.354Z,30.07
2022-08-10T12:05:51.638Z,29.90
2022-08-10T12:10:07.017Z,29.82
2022-08-10T12:11:25.252Z,29.58
2022-08-10T12:14:22.534Z,29.63
2022-08-10T12:17:01.043Z,29.78
2022-08-10T12:19:59.321Z,29.67
2022-08-10T12:22:42.874Z,30.04
2022-08-10T12:25:55.161Z,30.46
2022-08-10T12:28:18.438Z,30.74
2022-08-10T12:30:57.735Z,30.98
2022-08-10T12:34:01.896Z,31.32
2022-08-10T12:36:42.716Z,31.01
2022-08-10T12:39:20.240Z,30.41
2022-08-10T12:41:58.682Z,29.94
2022-08-10T12:44:41.678Z,29.65
2022-08-10T12:47:37.866Z,29.29
2022-08-10T12:50:33.533Z,29.15
2022-08-10T12:53:12.643Z,29.06
2022-08-10T12:55:43.975Z,29.33
2022-08-10T12:58:57.173Z,30.01
2022-08-10T13:01:18.790Z,30.25
2022-08-10T13:04:20.461Z,30.11
2022-08-10T13:06:49.981Z,29.82
2022-08-10T13:09:24.607Z,29.49
2022-08-10T13:12:38.487Z,29.19
2022-08-10T13:15:01.614Z,28.87
2022-08-10T13:17:39.566Z,28.98
2022-08-10T13:20:24.105Z,29.42
2022-08-10T13:23:11.886Z,29.95
2022-08-10T13:25:49.833Z,30.56
2022-08-10T13:28:36.392Z,31.15
2022-08-10T13:31:16.829Z,31.97
2022-08-10T13:34:40.410Z,32.76
2022-08-10T13:36:54.673Z,33.36
2022-08-10T13:39:59.127Z,34.10
2022-08-10T13:42:32.899Z,33.99
2022-08-10T13:45:10.807Z,33.87
2022-08-10T13:47:48.655Z,33.91
2022-08-10T13:50:35.263Z,33.51
2022-08-10T13:53:17.849Z,32.64
2022-08-10T13:55:53.904Z,32.06
2022-08-10T13:58:30.344Z,31.49
2022-08-10T14:01:01.852Z,31.24
2022-08-10T14:03:39.580Z,31.41
2022-08-10T14:06:13.715Z,31.83
2022-08-10T14:08:52.977Z,31.62
2022-08-10T14:11:29.216Z,31.35
2022-08-10T14:14:01.482Z,31.07
2022-08-10T14:16:33.368Z,30.78
2022-08-10T14:19:17.921Z,30.42
2022-08-10T14:21:48.200Z,30.27
2022-08-10T14:24:27.569Z,30.03
2022-08-10T14:27:07.049Z,29.89
2022-08-10T14:29:44.537Z,29.75
2022-08-10T14:32:17.372Z,29.65
2022-08-10T14:36:16.706Z,29.56
2022-08-10T14:37:51.967Z,29.49
2022-08-10T14:40:25.924Z,29.45
2022-08-10T14:43:02.258Z,29.53
2022-08-10T14:45:35.772Z,30.02
2022-08-10T14:48:15.071Z,30.86
2022-08-10T14:50:55.489Z,31.41
2022-08-10T14:53:30.662Z,31.50
2022-08-10T14:56:13.477Z,31.12
2022-08-10T15:00:23.155Z,30.75
2022-08-10T15:02:40.521Z,30.46
2022-08-10T15:05:39.629Z,30.17
2022-08-10T15:08:12.701Z,29.95
2022-08-10T15:10:42.983Z,29.69
2022-08-10T15:13:33.823Z,29.43
2022-08-10T15:16:15.212Z,29.30
2022-08-10T15:18:58.482Z,29.20
2022-08-10T15:21:42.923Z,29.17
2022-08-10T15:24:38.155Z,29.20
2022-08-10T15:27:12.088Z,29.26
2022-08-10T15:29:57.526Z,29.51
2022-08-10T15:32:55.629Z,29.84
2022-08-10T15:35:46.875Z,29.72
2022-08-10T15:38:27.740Z,29.51
2022-08-10T15:41:06.236Z,29.43
2022-08-10T15:43:44.508Z,29.39
2022-08-10T15:46:21.993Z,29.37
2022-08-10T15:49:04.482Z,29.29
2022-08-10T15:51:54.092Z,29.22
2022-08-10T15:54:34.352Z,28.96
2022-08-10T15:57:09.744Z,28.83
2022-08-10T15:59:47.973Z,28.72
2022-08-10T16:02:30.389Z,28.72
2022-08-10T16:05:12.932Z,28.67
2022-08-10T16:07:49.429Z,28.59
2022-08-10T16:10:28.943Z,28.57
2022-08-10T16:13:02.463Z,28.50
2022-08-10T16:15:58.204Z,28.44
2022-08-10T16:18:31.567Z,28.33
2022-08-10T16:21:06.804Z,28.28
2022-08-10T16:23:42.223Z,28.22
2022-08-10T16:26:17.885Z,28.18
2022-08-10T16:28:59.171Z,28.10
2022-08-10T16:31:32.743Z,28.03
2022-08-10T16:34:09.009Z,27.98
2022-08-10T16:36:47.480Z,27.91
2022-08-10T16:39:59.253Z,27.77
2022-08-10T16:42:31.228Z,27.71
2022-08-10T16:45:55.589Z,27.61
2022-08-10T16:48:49.952Z,27.43
2022-08-10T16:51:25.755Z,27.34
2022-08-10T16:54:08.773Z,27.33
2022-08-10T16:57:57.473Z,27.28
2022-08-10T17:00:30.402Z,27.21
2022-08-10T17:04:04.578Z,27.11
2022-08-10T17:06:09.653Z,26.97
2022-08-10T17:08:48.419Z,26.86
2022-08-10T17:11:24.588Z,26.73
2022-08-10T17:13:58.739Z,26.60
2022-08-10T17:16:37.516Z,26.45
2022-08-10T17:19:14.784Z,26.33
2022-08-10T17:21:53.090Z,26.23
2022-08-10T17:24:54.061Z,26.17
2022-08-10T17:28:05.447Z,26.13
2022-08-10T17:30:34.249Z,26.09
2022-08-10T17:33:12.324Z,26.03
2022-08-10T17:35:46.842Z,25.99
2022-08-10T17:38:22.839Z,25.92
2022-08-10T17:41:03.818Z,25.84
2022-08-10T17:43:46.455Z,25.70
2022-08-10T17:46:27.717Z,25.73
2022-08-10T17:49:10.456Z,25.60
2022-08-10T17:51:43.272Z,25.41
2022-08-10T17:54:28.140Z,25.49
2022-08-10T17:57:06.078Z,25.30
2022-08-10T17:59:39.056Z,25.21
2022-08-10T18:02:11.985Z,25.14
2022-08-10T18:04:47.425Z,25.03
2022-08-10T18:08:13.238Z,24.95
2022-08-10T18:10:45.129Z,24.81
2022-08-10T18:13:22.332Z,24.75
2022-08-10T18:15:53.413Z,24.63
2022-08-10T18:18:28.723Z,24.54
2022-08-10T18:21:09.536Z,24.48
2022-08-10T18:23:42.520Z,24.40
2022-08-10T18:26:25.587Z,24.26
2022-08-10T18:28:59.672Z,24.19
2022-08-10T18:31:31.439Z,24.07
2022-08-10T18:34:03.114Z,24.00
2022-08-10T18:36:43.472Z,23.97
2022-08-10T18:39:42.220Z,23.89
2022-08-10T18:42:25.719Z,23.89
2022-08-10T18:45:06.295Z,23.76
2022-08-10T18:47:59.054Z,23.64
2022-08-10T18:51:24.843Z,23.51
2022-08-10T18:54:00.814Z,23.43
2022-08-10T18:56:56.318Z,23.41
2022-08-10T19:00:09.736Z,23.27
2022-08-10T19:03:01.308Z,23.17
2022-08-10T19:05:54.552Z,23.15
2022-08-10T19:08:50.411Z,23.12
2022-08-10T19:11:52.665Z,23.00
2022-08-10T19:14:58.619Z,22.93
2022-08-10T19:18:03.033Z,22.87
2022-08-10T19:20:45.514Z,22.73
2022-08-10T19:23:52.749Z,22.66
2022-08-10T19:26:46.015Z,22.63
2022-08-10T19:30:09.002Z,22.59
2022-08-10T19:32:39.833Z,22.52
2022-08-10T19:35:24.130Z,22.41
2022-08-10T19:38:11.702Z,22.34
2022-08-10T19:41:09.511Z,22.20
2022-08-10T19:44:00.883Z,22.15
2022-08-10T19:46:43.833Z,22.12
2022-08-10T19:49:39.605Z,21.97
2022-08-10T19:52:24.847Z,21.83
2022-08-10T19:55:06.487Z,21.86
2022-08-10T19:57:54.308Z,21.93
2022-08-10T20:00:29.497Z,21.80
2022-08-10T20:03:18.410Z,21.71
2022-08-10T20:06:20.892Z,21.62
2022-08-10T20:09:02.158Z,21.55
2022-08-10T20:11:47.163Z,21.42
2022-08-10T20:14:23.055Z,21.35
2022-08-10T20:16:59.911Z,21.29
2022-08-10T20:19:53.669Z,21.14
2022-08-10T20:22:36.505Z,21.11
2022-08-10T20:25:15.074Z,21.05
2022-08-10T20:27:59.933Z,20.98
2022-08-10T20:30:36.103Z,20.92
2022-08-10T20:33:19.026Z,20.79
2022-08-10T20:35:51.659Z,20.77
2022-08-10T20:38:29.763Z,20.70
2022-08-10T20:41:15.958Z,20.73
2022-08-10T20:44:01.614Z,20.64
2022-08-10T20:46:44.854Z,20.55
2022-08-10T20:50:47.964Z,20.54
2022-08-10T20:53:22.519Z,20.40
2022-08-10T20:56:04.891Z,20.33
2022-08-10T20:59:10.210Z,20.24
2022-08-10T21:02:07.175Z,20.22
2022-08-10T21:04:57.100Z,20.13
2022-08-10T21:08:08.586Z,20.08
2022-08-10T21:11:02.668Z,20.00
2022-08-10T21:14:02.048Z,19.93
2022-08-10T21:17:06.576Z,19.90
2022-08-10T21:20:47.399Z,19.78
2022-08-10T21:23:30.701Z,19.71
2022-08-10T21:26:09.934Z,19.72
2022-08-10T21:29:21.235Z,19.76
2022-08-10T21:32:20.322Z,19.65
2022-08-10T21:35:05.919Z,19.61
2022-08-10T21:38:00.005Z,19.52
2022-08-10T21:41:17.108Z,19.46
2022-08-10T21:44:08.862Z,19.46
2022-08-10T21:47:09.802Z,19.41
2022-08-10T21:50:16.286Z,19.31
2022-08-10T21:53:17.163Z,19.29
2022-08-10T21:56:15.841Z,19.26
2022-08-10T21:59:12.911Z,19.21
2022-08-10T22:02:10.240Z,19.20
2022-08-10T22:04:58.892Z,19.05
2022-08-10T22:07:48.314Z,18.95
2022-08-10T22:10:40.910Z,18.91
2022-08-10T22:13:33.930Z,18.98
2022-08-10T22:16:27.308Z,18.97
2022-08-10T22:19:19.464Z,18.90
2022-08-10T22:22:27.639Z,18.85
2022-08-10T22:25:30.046Z,18.78
2022-08-10T22:28:20.105Z,18.71
2022-08-10T22:31:30.812Z,18.71
2022-08-10T22:34:54.965Z,18.61
2022-08-10T22:37:59.794Z,18.59
2022-08-10T22:40:54.564Z,18.52
2022-08-10T22:43:48.833Z,18.48
2022-08-10T22:46:46.430Z,18.54
2022-08-10T22:49:22.077Z,18.45
2022-08-10T22:51:56.197Z,18.44
2022-08-10T22:54:52.111Z,18.32
2022-08-10T22:57:39.165Z,18.29
2022-08-10T23:00:15.334Z,18.21
2022-08-10T23:02:54.567Z,18.22
2022-08-10T23:05:34.815Z,18.23
2022-08-10T23:08:29.711Z,18.16
2022-08-10T23:11:07.775Z,18.12
2022-08-10T23:13:43.390Z,18.10
2022-08-10T23:16:39.610Z,18.26
2022-08-10T23:19:18.700Z,18.20
2022-08-10T23:22:03.391Z,18.12
2022-08-10T23:24:41.003Z,17.94
2022-08-10T23:27:37.977Z,17.87
2022-08-10T23:30:10.152Z,17.84
2022-08-10T23:32:44.098Z,17.80
2022-08-10T23:36:30.567Z,17.74
2022-08-10T23:38:08.409Z,17.64
2022-08-10T23:40:39.516Z,17.59
2022-08-10T23:43:15.506Z,17.61
2022-08-10T23:45:53.772Z,17.63
2022-08-10T23:48:27.884Z,17.58
2022-08-10T23:51:01.703Z,17.50
2022-08-10T23:53:35.516Z,17.44
2022-08-10T23:56:11.803Z,17.44
2022-08-10T23:58:48.451Z,17.55
